sensor_id;sensor_type;location;lat;lon;timestamp;temperature;humidity
34768;DHT22;21755;43.608;1.236;2024-03-06T00:01:05;8.80;1.00
34768;DHT22;21755;43.608;1.236;2024-03-06T00:03:32;8.90;1.00
34768;DHT22;21755;43.608;1.236;2024-03-06T00:05:58;8.80;1.00
34768;DHT22;21755;43.608;1.236;2024-03-06T00:08:24;8.80;1.00
34768;DHT22;21755;43.608;1.236;2024-03-06T00:10:50;8.80;1.00
34768;DHT22;21755;43.608;1.236;2024-03-06T00:13:16;8.80;1.00
34768;DHT22;21755;43.608;1.236;2024-03-06T00:15:42;8.80;1.00
34768;DHT22;21755;43.608;1.236;2024-03-06T00:18:08;8.80;1.00
34768;DHT22;21755;43.608;1.236;2024-03-06T00:20:35;8.80;1.00
34768;DHT22;21755;43.608;1.236;2024-03-06T00:23:02;8.80;1.00
34768;DHT22;21755;43.608;1.236;2024-03-06T00:25:28;8.80;1.00
34768;DHT22;21755;43.608;1.236;2024-03-06T00:27:54;8.80;1.00
34768;DHT22;21755;43.608;1.236;2024-03-06T00:30:20;8.80;1.00
34768;DHT22;21755;43.608;1.236;2024-03-06T00:32:46;8.80;1.00
34768;DHT22;21755;43.608;1.236;2024-03-06T00:35:12;8.80;1.00
34768;DHT22;21755;43.608;1.236;2024-03-06T00:37:38;8.80;1.00
34768;DHT22;21755;43.608;1.236;2024-03-06T00:40:04;8.80;1.00
34768;DHT22;21755;43.608;1.236;2024-03-06T00:42:30;8.80;1.00
34768;DHT22;21755;43.608;1.236;2024-03-06T00:44:56;8.80;1.00
34768;DHT22;21755;43.608;1.236;2024-03-06T00:47:22;8.80;1.00
34768;DHT22;21755;43.608;1.236;2024-03-06T00:49:48;8.80;1.00
34768;DHT22;21755;43.608;1.236;2024-03-06T00:52:14;8.80;1.00
34768;DHT22;21755;43.608;1.236;2024-03-06T00:54:40;8.80;1.00
34768;DHT22;21755;43.608;1.236;2024-03-06T00:57:06;8.80;1.00
34768;DHT22;21755;43.608;1.236;2024-03-06T00:59:32;8.80;1.00
34768;DHT22;21755;43.608;1.236;2024-03-06T01:01:58;8.80;1.00
34768;DHT22;21755;43.608;1.236;2024-03-06T01:04:24;8.80;1.00
34768;DHT22;21755;43.608;1.236;2024-03-06T01:06:50;8.70;1.00
34768;DHT22;21755;43.608;1.236;2024-03-06T01:09:17;8.70;1.00
34768;DHT22;21755;43.608;1.236;2024-03-06T01:11:43;8.70;1.00
34768;DHT22;21755;43.608;1.236;2024-03-06T01:14:09;8.70;1.00
34768;DHT22;21755;43.608;1.236;2024-03-06T01:16:35;8.70;1.00
34768;DHT22;21755;43.608;1.236;2024-03-06T01:19:01;8.70;1.00
34768;DHT22;21755;43.608;1.236;2024-03-06T01:21:26;8.70;1.00
34768;DHT22;21755;43.608;1.236;2024-03-06T01:23:54;8.70;1.00
34768;DHT22;21755;43.608;1.236;2024-03-06T01:26:20;8.70;1.00
34768;DHT22;21755;43.608;1.236;2024-03-06T01:28:46;8.60;1.00
34768;DHT22;21755;43.608;1.236;2024-03-06T01:31:12;8.60;1.00
34768;DHT22;21755;43.608;1.236;2024-03-06T01:33:38;8.60;1.00
34768;DHT22;21755;43.608;1.236;2024-03-06T01:36:04;8.60;1.00
34768;DHT22;21755;43.608;1.236;2024-03-06T01:38:30;8.60;1.00
34768;DHT22;21755;43.608;1.236;2024-03-06T01:40:56;8.60;1.00
34768;DHT22;21755;43.608;1.236;2024-03-06T01:43:25;8.60;1.00
34768;DHT22;21755;43.608;1.236;2024-03-06T01:45:51;8.60;1.00
34768;DHT22;21755;43.608;1.236;2024-03-06T01:48:23;8.60;1.00
34768;DHT22;21755;43.608;1.236;2024-03-06T01:50:55;8.60;1.00
34768;DHT22;21755;43.608;1.236;2024-03-06T01:53:22;8.50;1.00
34768;DHT22;21755;43.608;1.236;2024-03-06T01:55:51;8.50;1.00
34768;DHT22;21755;43.608;1.236;2024-03-06T01:58:17;8.50;1.00
34768;DHT22;21755;43.608;1.236;2024-03-06T02:00:44;8.50;1.00
34768;DHT22;21755;43.608;1.236;2024-03-06T02:03:11;8.50;1.00
34768;DHT22;21755;43.608;1.236;2024-03-06T02:05:37;8.50;1.00
34768;DHT22;21755;43.608;1.236;2024-03-06T02:08:03;8.50;1.00
34768;DHT22;21755;43.608;1.236;2024-03-06T02:10:30;8.50;1.00
34768;DHT22;21755;43.608;1.236;2024-03-06T02:12:56;8.40;1.00
34768;DHT22;21755;43.608;1.236;2024-03-06T02:15:22;8.40;1.00
34768;DHT22;21755;43.608;1.236;2024-03-06T02:17:48;8.40;1.00
34768;DHT22;21755;43.608;1.236;2024-03-06T02:20:14;8.40;1.00
34768;DHT22;21755;43.608;1.236;2024-03-06T02:22:41;8.40;1.00
34768;DHT22;21755;43.608;1.236;2024-03-06T02:25:07;8.40;1.00
34768;DHT22;21755;43.608;1.236;2024-03-06T02:27:33;8.40;1.00
34768;DHT22;21755;43.608;1.236;2024-03-06T02:29:59;8.40;1.30
34768;DHT22;21755;43.608;1.236;2024-03-06T02:32:26;8.40;2.60
34768;DHT22;21755;43.608;1.236;2024-03-06T02:34:52;8.40;3.30
34768;DHT22;21755;43.608;1.236;2024-03-06T02:37:18;8.40;3.30
34768;DHT22;21755;43.608;1.236;2024-03-06T02:39:44;8.40;3.60
34768;DHT22;21755;43.608;1.236;2024-03-06T02:42:10;8.40;3.50
34768;DHT22;21755;43.608;1.236;2024-03-06T02:44:35;8.40;3.50
34768;DHT22;21755;43.608;1.236;2024-03-06T02:47:01;8.40;3.50
34768;DHT22;21755;43.608;1.236;2024-03-06T02:49:27;8.30;3.20
34768;DHT22;21755;43.608;1.236;2024-03-06T02:51:53;8.30;2.60
34768;DHT22;21755;43.608;1.236;2024-03-06T02:54:19;8.30;1.50
34768;DHT22;21755;43.608;1.236;2024-03-06T02:56:45;8.30;1.00
34768;DHT22;21755;43.608;1.236;2024-03-06T02:59:11;8.30;1.00
34768;DHT22;21755;43.608;1.236;2024-03-06T03:01:38;8.20;1.00
34768;DHT22;21755;43.608;1.236;2024-03-06T03:04:04;8.20;1.00
34768;DHT22;21755;43.608;1.236;2024-03-06T03:06:33;8.20;1.00
34768;DHT22;21755;43.608;1.236;2024-03-06T03:08:58;8.20;1.00
34768;DHT22;21755;43.608;1.236;2024-03-06T03:11:24;8.20;1.00
34768;DHT22;21755;43.608;1.236;2024-03-06T03:13:50;8.20;1.00
34768;DHT22;21755;43.608;1.236;2024-03-06T03:16:19;8.20;1.00
34768;DHT22;21755;43.608;1.236;2024-03-06T03:18:46;8.20;1.00
34768;DHT22;21755;43.608;1.236;2024-03-06T03:21:14;8.20;1.80
34768;DHT22;21755;43.608;1.236;2024-03-06T03:23:40;8.20;2.90
34768;DHT22;21755;43.608;1.236;2024-03-06T03:26:07;8.20;4.20
34768;DHT22;21755;43.608;1.236;2024-03-06T03:28:32;8.20;4.60
34768;DHT22;21755;43.608;1.236;2024-03-06T03:30:58;8.20;5.30
34768;DHT22;21755;43.608;1.236;2024-03-06T03:33:24;8.20;5.60
34768;DHT22;21755;43.608;1.236;2024-03-06T03:35:50;8.20;5.70
34768;DHT22;21755;43.608;1.236;2024-03-06T03:38:17;8.20;5.30
34768;DHT22;21755;43.608;1.236;2024-03-06T03:40:43;8.20;5.90
34768;DHT22;21755;43.608;1.236;2024-03-06T03:43:08;8.20;6.20
34768;DHT22;21755;43.608;1.236;2024-03-06T03:45:35;8.10;6.60
34768;DHT22;21755;43.608;1.236;2024-03-06T03:48:02;8.10;7.40
34768;DHT22;21755;43.608;1.236;2024-03-06T03:50:31;8.10;8.10
34768;DHT22;21755;43.608;1.236;2024-03-06T03:52:57;8.10;8.50
34768;DHT22;21755;43.608;1.236;2024-03-06T03:55:27;8.10;9.50
34768;DHT22;21755;43.608;1.236;2024-03-06T03:57:53;8.10;9.80
34768;DHT22;21755;43.608;1.236;2024-03-06T04:00:19;8.10;10.60
34768;DHT22;21755;43.608;1.236;2024-03-06T04:02:45;8.10;10.80
34768;DHT22;21755;43.608;1.236;2024-03-06T04:05:11;8.10;11.10
34768;DHT22;21755;43.608;1.236;2024-03-06T04:07:37;8.10;11.60
34768;DHT22;21755;43.608;1.236;2024-03-06T04:10:04;8.10;12.00
34768;DHT22;21755;43.608;1.236;2024-03-06T04:12:30;8.10;12.00
34768;DHT22;21755;43.608;1.236;2024-03-06T04:14:56;8.10;12.50
34768;DHT22;21755;43.608;1.236;2024-03-06T04:17:22;8.10;13.30
34768;DHT22;21755;43.608;1.236;2024-03-06T04:19:48;8.10;13.80
34768;DHT22;21755;43.608;1.236;2024-03-06T04:22:15;8.10;14.60
34768;DHT22;21755;43.608;1.236;2024-03-06T04:24:44;8.00;15.00
34768;DHT22;21755;43.608;1.236;2024-03-06T04:27:10;8.00;15.20
34768;DHT22;21755;43.608;1.236;2024-03-06T04:29:36;8.00;15.30
34768;DHT22;21755;43.608;1.236;2024-03-06T04:32:02;8.10;15.60
34768;DHT22;21755;43.608;1.236;2024-03-06T04:34:28;8.00;16.00
34768;DHT22;21755;43.608;1.236;2024-03-06T04:36:54;8.00;16.80
34768;DHT22;21755;43.608;1.236;2024-03-06T04:39:19;8.00;16.90
34768;DHT22;21755;43.608;1.236;2024-03-06T04:41:45;8.00;17.50
34768;DHT22;21755;43.608;1.236;2024-03-06T04:44:11;8.00;17.70
34768;DHT22;21755;43.608;1.236;2024-03-06T04:46:37;8.00;18.10
34768;DHT22;21755;43.608;1.236;2024-03-06T04:49:03;8.00;18.10
34768;DHT22;21755;43.608;1.236;2024-03-06T04:51:29;8.00;18.40
34768;DHT22;21755;43.608;1.236;2024-03-06T04:53:55;8.00;18.50
34768;DHT22;21755;43.608;1.236;2024-03-06T04:56:20;8.00;18.20
34768;DHT22;21755;43.608;1.236;2024-03-06T04:58:47;8.00;18.70
34768;DHT22;21755;43.608;1.236;2024-03-06T05:01:13;8.00;18.60
34768;DHT22;21755;43.608;1.236;2024-03-06T05:03:39;8.00;19.10
34768;DHT22;21755;43.608;1.236;2024-03-06T05:06:06;7.90;19.40
34768;DHT22;21755;43.608;1.236;2024-03-06T05:08:31;7.90;19.90
34768;DHT22;21755;43.608;1.236;2024-03-06T05:11:02;7.90;20.10
34768;DHT22;21755;43.608;1.236;2024-03-06T05:13:28;8.00;20.30
34768;DHT22;21755;43.608;1.236;2024-03-06T05:15:54;7.90;20.80
34768;DHT22;21755;43.608;1.236;2024-03-06T05:18:20;7.90;21.30
34768;DHT22;21755;43.608;1.236;2024-03-06T05:20:47;7.90;21.50
34768;DHT22;21755;43.608;1.236;2024-03-06T05:23:13;7.90;21.60
34768;DHT22;21755;43.608;1.236;2024-03-06T05:25:40;7.90;21.80
34768;DHT22;21755;43.608;1.236;2024-03-06T05:28:06;7.90;22.40
34768;DHT22;21755;43.608;1.236;2024-03-06T05:30:32;7.90;23.20
34768;DHT22;21755;43.608;1.236;2024-03-06T05:32:58;7.90;23.60
34768;DHT22;21755;43.608;1.236;2024-03-06T05:35:24;7.90;24.30
34768;DHT22;21755;43.608;1.236;2024-03-06T05:37:50;7.90;24.30
34768;DHT22;21755;43.608;1.236;2024-03-06T05:40:16;7.90;24.50
34768;DHT22;21755;43.608;1.236;2024-03-06T05:42:42;7.90;24.70
34768;DHT22;21755;43.608;1.236;2024-03-06T05:45:08;7.90;24.10
34768;DHT22;21755;43.608;1.236;2024-03-06T05:47:37;7.90;24.00
34768;DHT22;21755;43.608;1.236;2024-03-06T05:52:40;7.90;24.20
34768;DHT22;21755;43.608;1.236;2024-03-06T05:55:06;7.90;24.50
34768;DHT22;21755;43.608;1.236;2024-03-06T05:57:32;7.80;24.30
34768;DHT22;21755;43.608;1.236;2024-03-06T05:59:58;7.80;24.00
34768;DHT22;21755;43.608;1.236;2024-03-06T06:02:24;7.80;24.30
34768;DHT22;21755;43.608;1.236;2024-03-06T06:04:50;7.80;24.20
34768;DHT22;21755;43.608;1.236;2024-03-06T06:07:16;7.80;24.60
34768;DHT22;21755;43.608;1.236;2024-03-06T06:09:42;7.80;16.20
34768;DHT22;21755;43.608;1.236;2024-03-06T06:12:08;7.60;2.60
34768;DHT22;21755;43.608;1.236;2024-03-06T06:14:34;7.30;7.10
34768;DHT22;21755;43.608;1.236;2024-03-06T06:17:00;7.20;17.20
34768;DHT22;21755;43.608;1.236;2024-03-06T06:19:26;7.00;22.70
34768;DHT22;21755;43.608;1.236;2024-03-06T06:21:55;6.90;32.10
34768;DHT22;21755;43.608;1.236;2024-03-06T06:24:21;6.90;37.70
34768;DHT22;21755;43.608;1.236;2024-03-06T06:26:46;6.80;42.40
34768;DHT22;21755;43.608;1.236;2024-03-06T06:29:13;6.70;45.80
34768;DHT22;21755;43.608;1.236;2024-03-06T06:31:38;6.60;51.10
34768;DHT22;21755;43.608;1.236;2024-03-06T06:34:04;6.60;53.80
34768;DHT22;21755;43.608;1.236;2024-03-06T06:36:30;6.50;55.70
34768;DHT22;21755;43.608;1.236;2024-03-06T06:38:56;6.50;58.40
34768;DHT22;21755;43.608;1.236;2024-03-06T06:41:22;6.50;59.20
34768;DHT22;21755;43.608;1.236;2024-03-06T06:43:50;6.40;61.30
34768;DHT22;21755;43.608;1.236;2024-03-06T06:46:18;6.40;63.70
34768;DHT22;21755;43.608;1.236;2024-03-06T06:48:44;6.40;65.70
34768;DHT22;21755;43.608;1.236;2024-03-06T06:51:09;6.40;69.70
34768;DHT22;21755;43.608;1.236;2024-03-06T06:53:37;6.50;71.90
34768;DHT22;21755;43.608;1.236;2024-03-06T06:56:04;6.50;74.80
34768;DHT22;21755;43.608;1.236;2024-03-06T06:58:30;6.50;74.40
34768;DHT22;21755;43.608;1.236;2024-03-06T07:00:56;6.50;75.30
34768;DHT22;21755;43.608;1.236;2024-03-06T07:03:22;6.60;74.50
34768;DHT22;21755;43.608;1.236;2024-03-06T07:05:55;6.60;76.30
34768;DHT22;21755;43.608;1.236;2024-03-06T07:08:22;6.70;77.50
34768;DHT22;21755;43.608;1.236;2024-03-06T07:10:48;6.80;77.30
34768;DHT22;21755;43.608;1.236;2024-03-06T07:13:14;6.80;79.20
34768;DHT22;21755;43.608;1.236;2024-03-06T07:15:40;6.90;79.60
34768;DHT22;21755;43.608;1.236;2024-03-06T07:18:06;7.00;78.80
34768;DHT22;21755;43.608;1.236;2024-03-06T07:20:32;7.10;77.60
34768;DHT22;21755;43.608;1.236;2024-03-06T07:22:58;7.10;79.20
34768;DHT22;21755;43.608;1.236;2024-03-06T07:25:24;7.20;79.00
34768;DHT22;21755;43.608;1.236;2024-03-06T07:27:50;7.20;80.80
34768;DHT22;21755;43.608;1.236;2024-03-06T07:30:16;7.30;80.90
34768;DHT22;21755;43.608;1.236;2024-03-06T07:32:42;7.40;80.40
34768;DHT22;21755;43.608;1.236;2024-03-06T07:35:08;7.40;79.90
34768;DHT22;21755;43.608;1.236;2024-03-06T07:37:34;7.40;79.20
34768;DHT22;21755;43.608;1.236;2024-03-06T07:39:59;7.50;77.80
34768;DHT22;21755;43.608;1.236;2024-03-06T07:42:26;7.50;76.70
34768;DHT22;21755;43.608;1.236;2024-03-06T07:44:52;7.60;77.30
34768;DHT22;21755;43.608;1.236;2024-03-06T07:47:17;7.60;76.90
34768;DHT22;21755;43.608;1.236;2024-03-06T07:49:43;7.60;74.40
34768;DHT22;21755;43.608;1.236;2024-03-06T07:52:10;7.60;71.60
34768;DHT22;21755;43.608;1.236;2024-03-06T07:54:36;7.60;68.20
34768;DHT22;21755;43.608;1.236;2024-03-06T07:57:02;7.50;66.40
34768;DHT22;21755;43.608;1.236;2024-03-06T07:59:28;7.50;64.40
34768;DHT22;21755;43.608;1.236;2024-03-06T08:01:53;7.50;64.50
34768;DHT22;21755;43.608;1.236;2024-03-06T08:04:21;7.50;66.50
34768;DHT22;21755;43.608;1.236;2024-03-06T08:06:49;7.50;70.00
34768;DHT22;21755;43.608;1.236;2024-03-06T08:09:14;7.50;73.30
34768;DHT22;21755;43.608;1.236;2024-03-06T08:11:42;7.60;75.90
34768;DHT22;21755;43.608;1.236;2024-03-06T08:14:08;7.60;76.30
34768;DHT22;21755;43.608;1.236;2024-03-06T08:16:34;7.70;77.30
34768;DHT22;21755;43.608;1.236;2024-03-06T08:19:00;7.70;74.80
34768;DHT22;21755;43.608;1.236;2024-03-06T08:21:26;7.70;72.00
34768;DHT22;21755;43.608;1.236;2024-03-06T08:23:52;7.70;71.70
34768;DHT22;21755;43.608;1.236;2024-03-06T08:26:18;7.70;71.80
34768;DHT22;21755;43.608;1.236;2024-03-06T08:28:44;7.70;73.90
34768;DHT22;21755;43.608;1.236;2024-03-06T08:31:10;7.70;76.40
34768;DHT22;21755;43.608;1.236;2024-03-06T08:33:36;7.80;78.70
34768;DHT22;21755;43.608;1.236;2024-03-06T08:36:03;7.80;81.80
34768;DHT22;21755;43.608;1.236;2024-03-06T08:38:29;7.90;82.50
34768;DHT22;21755;43.608;1.236;2024-03-06T08:40:55;8.00;82.60
34768;DHT22;21755;43.608;1.236;2024-03-06T08:43:21;8.20;83.50
34768;DHT22;21755;43.608;1.236;2024-03-06T08:45:46;8.30;82.90
34768;DHT22;21755;43.608;1.236;2024-03-06T08:48:12;8.40;82.30
34768;DHT22;21755;43.608;1.236;2024-03-06T08:50:38;8.60;81.20
34768;DHT22;21755;43.608;1.236;2024-03-06T08:53:04;8.80;77.90
34768;DHT22;21755;43.608;1.236;2024-03-06T08:55:30;9.00;71.00
34768;DHT22;21755;43.608;1.236;2024-03-06T08:57:56;9.20;63.50
34768;DHT22;21755;43.608;1.236;2024-03-06T09:00:22;9.40;57.80
34768;DHT22;21755;43.608;1.236;2024-03-06T09:02:48;9.50;44.80
34768;DHT22;21755;43.608;1.236;2024-03-06T09:05:15;9.60;35.20
34768;DHT22;21755;43.608;1.236;2024-03-06T09:07:41;9.70;28.40
34768;DHT22;21755;43.608;1.236;2024-03-06T09:10:08;9.70;22.10
34768;DHT22;21755;43.608;1.236;2024-03-06T09:12:34;9.80;12.50
34768;DHT22;21755;43.608;1.236;2024-03-06T09:15:02;9.70;7.70
34768;DHT22;21755;43.608;1.236;2024-03-06T09:17:28;9.70;8.20
34768;DHT22;21755;43.608;1.236;2024-03-06T09:19:55;9.60;7.80
34768;DHT22;21755;43.608;1.236;2024-03-06T09:22:21;9.60;8.70
34768;DHT22;21755;43.608;1.236;2024-03-06T09:24:47;9.50;9.70
34768;DHT22;21755;43.608;1.236;2024-03-06T09:27:14;9.50;8.80
34768;DHT22;21755;43.608;1.236;2024-03-06T09:29:40;9.50;8.30
34768;DHT22;21755;43.608;1.236;2024-03-06T09:32:07;9.60;12.90
34768;DHT22;21755;43.608;1.236;2024-03-06T09:34:32;9.70;11.20
34768;DHT22;21755;43.608;1.236;2024-03-06T09:36:58;9.80;8.80
34768;DHT22;21755;43.608;1.236;2024-03-06T09:39:24;10.00;1.00
34768;DHT22;21755;43.608;1.236;2024-03-06T09:41:51;10.00;1.00
34768;DHT22;21755;43.608;1.236;2024-03-06T09:44:17;10.10;1.00
34768;DHT22;21755;43.608;1.236;2024-03-06T09:46:45;10.20;1.00
34768;DHT22;21755;43.608;1.236;2024-03-06T09:49:13;10.30;1.00
34768;DHT22;21755;43.608;1.236;2024-03-06T09:51:45;10.40;1.00
34768;DHT22;21755;43.608;1.236;2024-03-06T09:54:14;10.30;1.00
34768;DHT22;21755;43.608;1.236;2024-03-06T09:56:42;10.10;1.00
34768;DHT22;21755;43.608;1.236;2024-03-06T09:59:09;10.10;1.00
34768;DHT22;21755;43.608;1.236;2024-03-06T10:01:41;10.10;1.00
34768;DHT22;21755;43.608;1.236;2024-03-06T10:04:21;10.20;1.00
34768;DHT22;21755;43.608;1.236;2024-03-06T10:06:48;10.20;1.00
34768;DHT22;21755;43.608;1.236;2024-03-06T10:09:19;10.30;1.00
34768;DHT22;21755;43.608;1.236;2024-03-06T10:11:45;10.40;1.00
34768;DHT22;21755;43.608;1.236;2024-03-06T10:14:11;10.60;1.00
34768;DHT22;21755;43.608;1.236;2024-03-06T10:16:38;10.80;1.00
34768;DHT22;21755;43.608;1.236;2024-03-06T10:19:16;10.90;1.00
34768;DHT22;21755;43.608;1.236;2024-03-06T10:21:46;11.10;1.00
34768;DHT22;21755;43.608;1.236;2024-03-06T10:24:23;11.20;1.00
34768;DHT22;21755;43.608;1.236;2024-03-06T10:26:55;11.20;1.00
34768;DHT22;21755;43.608;1.236;2024-03-06T10:29:22;11.30;1.00
34768;DHT22;21755;43.608;1.236;2024-03-06T10:31:57;11.30;1.00
34768;DHT22;21755;43.608;1.236;2024-03-06T10:34:27;11.40;1.00
34768;DHT22;21755;43.608;1.236;2024-03-06T10:39:22;11.50;1.00
34768;DHT22;21755;43.608;1.236;2024-03-06T10:41:57;11.60;1.00
34768;DHT22;21755;43.608;1.236;2024-03-06T10:44:25;11.50;99.90
34768;DHT22;21755;43.608;1.236;2024-03-06T10:47:09;11.50;99.90
34768;DHT22;21755;43.608;1.236;2024-03-06T10:49:35;11.50;1.00
34768;DHT22;21755;43.608;1.236;2024-03-06T10:52:04;11.60;1.00
34768;DHT22;21755;43.608;1.236;2024-03-06T10:54:33;11.60;99.90
34768;DHT22;21755;43.608;1.236;2024-03-06T10:57:01;11.60;99.90
34768;DHT22;21755;43.608;1.236;2024-03-06T10:59:29;11.60;99.90
34768;DHT22;21755;43.608;1.236;2024-03-06T11:01:58;11.60;99.90
34768;DHT22;21755;43.608;1.236;2024-03-06T11:04:29;11.70;99.90
34768;DHT22;21755;43.608;1.236;2024-03-06T11:06:57;11.90;99.90
34768;DHT22;21755;43.608;1.236;2024-03-06T11:09:26;12.10;99.90
34768;DHT22;21755;43.608;1.236;2024-03-06T11:11:52;12.20;99.90
34768;DHT22;21755;43.608;1.236;2024-03-06T11:14:21;12.30;99.90
34768;DHT22;21755;43.608;1.236;2024-03-06T11:17:04;12.50;99.90
34768;DHT22;21755;43.608;1.236;2024-03-06T11:19:31;12.60;99.90
34768;DHT22;21755;43.608;1.236;2024-03-06T11:21:58;12.80;99.90
34768;DHT22;21755;43.608;1.236;2024-03-06T11:24:34;12.90;99.90
34768;DHT22;21755;43.608;1.236;2024-03-06T11:27:02;13.10;99.90
34768;DHT22;21755;43.608;1.236;2024-03-06T11:30:23;13.20;99.90
34768;DHT22;21755;43.608;1.236;2024-03-06T11:32:58;13.30;99.90
34768;DHT22;21755;43.608;1.236;2024-03-06T11:35:24;13.20;11.60
34768;DHT22;21755;43.608;1.236;2024-03-06T11:37:50;13.00;89.10
34768;DHT22;21755;43.608;1.236;2024-03-06T11:40:26;12.80;99.90
34768;DHT22;21755;43.608;1.236;2024-03-06T11:42:52;12.50;99.90
34768;DHT22;21755;43.608;1.236;2024-03-06T11:45:19;12.20;99.90
34768;DHT22;21755;43.608;1.236;2024-03-06T11:48:00;12.00;99.90
34768;DHT22;21755;43.608;1.236;2024-03-06T11:52:55;11.80;99.90
34768;DHT22;21755;43.608;1.236;2024-03-06T11:55:22;11.80;99.90
34768;DHT22;21755;43.608;1.236;2024-03-06T11:57:48;11.70;99.90
34768;DHT22;21755;43.608;1.236;2024-03-06T12:00:14;11.90;99.90
34768;DHT22;21755;43.608;1.236;2024-03-06T12:02:40;12.00;99.90
34768;DHT22;21755;43.608;1.236;2024-03-06T12:05:07;12.30;99.90
34768;DHT22;21755;43.608;1.236;2024-03-06T12:07:51;12.80;99.90
34768;DHT22;21755;43.608;1.236;2024-03-06T12:10:17;13.20;72.30
34768;DHT22;21755;43.608;1.236;2024-03-06T12:12:44;13.60;99.90
34768;DHT22;21755;43.608;1.236;2024-03-06T12:15:11;13.90;99.90
34768;DHT22;21755;43.608;1.236;2024-03-06T12:17:48;13.80;1.00
34768;DHT22;21755;43.608;1.236;2024-03-06T12:20:18;13.60;1.00
34768;DHT22;21755;43.608;1.236;2024-03-06T12:22:51;13.30;99.90
34768;DHT22;21755;43.608;1.236;2024-03-06T12:25:21;13.20;61.00
34768;DHT22;21755;43.608;1.236;2024-03-06T12:27:48;13.30;85.50
34768;DHT22;21755;43.608;1.236;2024-03-06T12:30:18;13.30;1.00
34768;DHT22;21755;43.608;1.236;2024-03-06T12:32:44;13.40;39.00
34768;DHT22;21755;43.608;1.236;2024-03-06T12:35:11;13.50;92.00
34768;DHT22;21755;43.608;1.236;2024-03-06T12:37:36;13.60;35.40
34768;DHT22;21755;43.608;1.236;2024-03-06T12:40:03;13.60;99.90
34768;DHT22;21755;43.608;1.236;2024-03-06T12:42:38;13.60;89.00
34768;DHT22;21755;43.608;1.236;2024-03-06T12:45:05;13.40;12.10
34768;DHT22;21755;43.608;1.236;2024-03-06T12:47:32;13.30;40.00
34768;DHT22;21755;43.608;1.236;2024-03-06T12:49:58;13.30;75.20
34768;DHT22;21755;43.608;1.236;2024-03-06T12:52:24;13.20;89.60
34768;DHT22;21755;43.608;1.236;2024-03-06T12:54:50;13.10;96.40
34768;DHT22;21755;43.608;1.236;2024-03-06T12:57:16;13.10;39.80
34768;DHT22;21755;43.608;1.236;2024-03-06T12:59:43;13.40;89.00
34768;DHT22;21755;43.608;1.236;2024-03-06T13:02:09;13.50;97.30
34768;DHT22;21755;43.608;1.236;2024-03-06T13:04:35;13.90;58.30
34768;DHT22;21755;43.608;1.236;2024-03-06T13:07:00;14.10;1.00
34768;DHT22;21755;43.608;1.236;2024-03-06T13:09:26;14.20;1.00
34768;DHT22;21755;43.608;1.236;2024-03-06T13:11:52;14.10;99.90
34768;DHT22;21755;43.608;1.236;2024-03-06T13:14:19;14.10;99.90
34768;DHT22;21755;43.608;1.236;2024-03-06T13:16:46;14.10;99.90
34768;DHT22;21755;43.608;1.236;2024-03-06T13:19:12;14.30;99.90
34768;DHT22;21755;43.608;1.236;2024-03-06T13:21:38;14.40;99.90
34768;DHT22;21755;43.608;1.236;2024-03-06T13:24:04;14.70;99.90
34768;DHT22;21755;43.608;1.236;2024-03-06T13:26:30;14.80;99.90
34768;DHT22;21755;43.608;1.236;2024-03-06T13:28:56;14.70;56.90
34768;DHT22;21755;43.608;1.236;2024-03-06T13:31:22;14.70;99.90
34768;DHT22;21755;43.608;1.236;2024-03-06T13:33:48;14.50;31.70
34768;DHT22;21755;43.608;1.236;2024-03-06T13:36:14;14.50;1.00
34768;DHT22;21755;43.608;1.236;2024-03-06T13:38:40;14.60;43.90
34768;DHT22;21755;43.608;1.236;2024-03-06T13:41:08;14.70;81.60
34768;DHT22;21755;43.608;1.236;2024-03-06T13:43:34;14.80;99.90
34768;DHT22;21755;43.608;1.236;2024-03-06T13:46:00;15.10;99.90
34768;DHT22;21755;43.608;1.236;2024-03-06T13:48:26;15.10;76.70
34768;DHT22;21755;43.608;1.236;2024-03-06T13:50:52;15.20;66.80
34768;DHT22;21755;43.608;1.236;2024-03-06T13:53:17;15.30;99.90
34768;DHT22;21755;43.608;1.236;2024-03-06T13:55:43;15.30;99.90
34768;DHT22;21755;43.608;1.236;2024-03-06T13:58:09;15.10;1.00
34768;DHT22;21755;43.608;1.236;2024-03-06T14:00:35;15.00;96.90
34768;DHT22;21755;43.608;1.236;2024-03-06T14:03:01;14.90;99.90
34768;DHT22;21755;43.608;1.236;2024-03-06T14:05:27;14.80;99.90
34768;DHT22;21755;43.608;1.236;2024-03-06T14:07:54;14.80;99.90
34768;DHT22;21755;43.608;1.236;2024-03-06T14:10:21;14.60;99.90
34768;DHT22;21755;43.608;1.236;2024-03-06T14:12:48;14.80;49.40
34768;DHT22;21755;43.608;1.236;2024-03-06T14:15:20;15.10;1.00
34768;DHT22;21755;43.608;1.236;2024-03-06T14:17:48;15.40;70.30
34768;DHT22;21755;43.608;1.236;2024-03-06T14:20:14;15.40;14.70
34768;DHT22;21755;43.608;1.236;2024-03-06T14:22:41;15.40;56.30
34768;DHT22;21755;43.608;1.236;2024-03-06T14:25:08;15.20;99.90
34768;DHT22;21755;43.608;1.236;2024-03-06T14:27:34;15.00;32.40
34768;DHT22;21755;43.608;1.236;2024-03-06T14:30:04;14.80;95.70
34768;DHT22;21755;43.608;1.236;2024-03-06T14:32:32;14.60;99.90
34768;DHT22;21755;43.608;1.236;2024-03-06T14:34:58;14.20;99.90
34768;DHT22;21755;43.608;1.236;2024-03-06T14:37:24;14.20;1.00
34768;DHT22;21755;43.608;1.236;2024-03-06T14:39:50;14.30;99.90
34768;DHT22;21755;43.608;1.236;2024-03-06T14:42:17;14.30;1.00
34768;DHT22;21755;43.608;1.236;2024-03-06T14:44:42;14.30;1.00
34768;DHT22;21755;43.608;1.236;2024-03-06T14:47:12;14.40;1.00
34768;DHT22;21755;43.608;1.236;2024-03-06T14:49:42;14.30;99.90
34768;DHT22;21755;43.608;1.236;2024-03-06T14:52:08;14.30;1.00
34768;DHT22;21755;43.608;1.236;2024-03-06T14:54:34;14.30;99.90
34768;DHT22;21755;43.608;1.236;2024-03-06T14:57:01;14.30;99.90
34768;DHT22;21755;43.608;1.236;2024-03-06T14:59:27;14.20;99.90
34768;DHT22;21755;43.608;1.236;2024-03-06T15:01:52;14.30;99.90
34768;DHT22;21755;43.608;1.236;2024-03-06T15:04:18;14.40;99.90
34768;DHT22;21755;43.608;1.236;2024-03-06T15:06:45;14.40;99.90
34768;DHT22;21755;43.608;1.236;2024-03-06T15:09:11;14.40;99.90
34768;DHT22;21755;43.608;1.236;2024-03-06T15:11:41;14.50;1.00
34768;DHT22;21755;43.608;1.236;2024-03-06T15:14:08;14.40;99.90
34768;DHT22;21755;43.608;1.236;2024-03-06T15:16:37;14.20;82.30
34768;DHT22;21755;43.608;1.236;2024-03-06T15:19:05;14.00;79.40
34768;DHT22;21755;43.608;1.236;2024-03-06T15:21:31;13.80;99.90
34768;DHT22;21755;43.608;1.236;2024-03-06T15:23:57;13.60;99.90
34768;DHT22;21755;43.608;1.236;2024-03-06T15:26:23;13.40;99.90
34768;DHT22;21755;43.608;1.236;2024-03-06T15:28:49;13.40;96.50
34768;DHT22;21755;43.608;1.236;2024-03-06T15:31:15;13.40;99.90
34768;DHT22;21755;43.608;1.236;2024-03-06T15:33:41;13.40;99.90
34768;DHT22;21755;43.608;1.236;2024-03-06T15:36:08;13.30;99.90
34768;DHT22;21755;43.608;1.236;2024-03-06T15:38:35;13.40;99.90
34768;DHT22;21755;43.608;1.236;2024-03-06T15:41:01;13.50;99.90
34768;DHT22;21755;43.608;1.236;2024-03-06T15:43:27;13.50;99.90
34768;DHT22;21755;43.608;1.236;2024-03-06T15:45:53;13.50;99.90
34768;DHT22;21755;43.608;1.236;2024-03-06T15:48:19;13.40;99.90
34768;DHT22;21755;43.608;1.236;2024-03-06T15:50:45;13.30;99.90